Kezdőlap
METAR-TAF:

METAR-TAF

Repülőterek :

Fairfield Municipal Airport

Fairfield, Iowa, Amerikai Egyesült Államok

földrajzi szélesség: 41-03N, földrajzi hosszúság: 091-59W, magasság: 244 m

Jelenlegi meteorológiai megfigyelések

A jelentés 10 perccel ezelõtt készült, 16:35 UTC
Északkeleti szél 11 kt széllökések: 19 kt, északi és kelet-északkeleti között változik
Hőmérséklet 13°C
Páratartalom 38%
Légköri nyomás 1028 hPa
Látótávolság: 16.1 km
Kevés felhő 6000 lábon

METAR: KFFL 111635Z AUTO 04011G19KT 010V070 10SM FEW060 13/M01 A3036 RMK A01

Idő: 11:45 (16:45 UTC)


TAF: hiányzik

Meteorológiai megfigyelések és előrejelzések több, mint 4000 repülőtéren (METAR és TAF jelentéseket).

A térképen piros és sárga pontok jelzik az elérhető meteorológiai állomásokat.

Mozgassa az egeret a pont fölött, hogy megjelenjen az állomás neve.

Azután kattintson az időjárási megfigyelések és előrejelzések megtekintéséhez.

A térkép megváltoztatása: kattintson a fekete keresztel jelölt zöld gombra ráközelítéshez, a vonallal jelölt zöld gombra távolításhoz, vagy a zöld nyilakra a szomszédos térképek eléréséhez.


METAR-TAF: